sensor_id;sensor_type;location;lat;lon;timestamp;P1;durP1;ratioP1;P2;durP2;ratioP2
71896;SDS011;59767;51.344;12.362;2022-12-18T00:00:03;95.30;;;37.65;;
71896;SDS011;59767;51.344;12.362;2022-12-18T00:03:08;86.53;;;37.42;;
71896;SDS011;59767;51.344;12.362;2022-12-18T00:06:12;84.85;;;36.78;;
71896;SDS011;59767;51.344;12.362;2022-12-18T00:09:18;92.45;;;36.75;;
71896;SDS011;59767;51.344;12.362;2022-12-18T00:12:22;85.30;;;35.65;;
71896;SDS011;59767;51.344;12.362;2022-12-18T00:15:26;88.68;;;36.63;;
71896;SDS011;59767;51.344;12.362;2022-12-18T00:18:31;90.70;;;37.83;;
71896;SDS011;59767;51.344;12.362;2022-12-18T00:21:35;81.57;;;34.22;;
71896;SDS011;59767;51.344;12.362;2022-12-18T00:24:40;88.15;;;35.08;;
71896;SDS011;59767;51.344;12.362;2022-12-18T00:27:44;70.18;;;27.52;;
71896;SDS011;59767;51.344;12.362;2022-12-18T00:30:48;65.28;;;26.73;;
71896;SDS011;59767;51.344;12.362;2022-12-18T00:33:55;62.10;;;25.25;;
71896;SDS011;59767;51.344;12.362;2022-12-18T00:37:00;66.03;;;26.35;;
71896;SDS011;59767;51.344;12.362;2022-12-18T00:40:04;65.82;;;26.85;;
71896;SDS011;59767;51.344;12.362;2022-12-18T00:43:09;66.32;;;28.88;;
71896;SDS011;59767;51.344;12.362;2022-12-18T00:46:13;81.00;;;34.05;;
71896;SDS011;59767;51.344;12.362;2022-12-18T00:49:17;85.38;;;35.28;;
71896;SDS011;59767;51.344;12.362;2022-12-18T00:52:23;84.55;;;34.65;;
71896;SDS011;59767;51.344;12.362;2022-12-18T00:55:26;88.22;;;35.30;;
71896;SDS011;59767;51.344;12.362;2022-12-18T00:58:30;84.68;;;34.42;;
71896;SDS011;59767;51.344;12.362;2022-12-18T01:01:34;76.95;;;32.22;;
71896;SDS011;59767;51.344;12.362;2022-12-18T01:04:38;72.95;;;28.88;;
71896;SDS011;59767;51.344;12.362;2022-12-18T01:07:43;64.03;;;26.17;;
71896;SDS011;59767;51.344;12.362;2022-12-18T01:10:47;68.97;;;24.95;;
71896;SDS011;59767;51.344;12.362;2022-12-18T01:13:52;68.03;;;25.13;;
71896;SDS011;59767;51.344;12.362;2022-12-18T01:16:57;64.03;;;25.50;;
71896;SDS011;59767;51.344;12.362;2022-12-18T01:20:01;65.28;;;26.55;;
71896;SDS011;59767;51.344;12.362;2022-12-18T01:23:06;61.05;;;25.95;;
71896;SDS011;59767;51.344;12.362;2022-12-18T01:26:12;63.95;;;25.95;;
71896;SDS011;59767;51.344;12.362;2022-12-18T01:29:19;66.97;;;25.88;;
71896;SDS011;59767;51.344;12.362;2022-12-18T01:32:24;63.92;;;25.80;;
71896;SDS011;59767;51.344;12.362;2022-12-18T01:35:28;62.95;;;25.73;;
71896;SDS011;59767;51.344;12.362;2022-12-18T01:38:32;62.35;;;24.95;;
71896;SDS011;59767;51.344;12.362;2022-12-18T01:41:37;62.80;;;26.20;;
71896;SDS011;59767;51.344;12.362;2022-12-18T01:48:13;62.85;;;25.83;;
71896;SDS011;59767;51.344;12.362;2022-12-18T01:51:17;67.03;;;25.90;;
71896;SDS011;59767;51.344;12.362;2022-12-18T01:54:21;66.28;;;25.33;;
71896;SDS011;59767;51.344;12.362;2022-12-18T01:57:26;62.72;;;25.65;;
71896;SDS011;59767;51.344;12.362;2022-12-18T02:00:31;61.28;;;26.27;;
71896;SDS011;59767;51.344;12.362;2022-12-18T02:03:36;65.20;;;24.67;;
71896;SDS011;59767;51.344;12.362;2022-12-18T02:06:40;64.35;;;24.02;;
71896;SDS011;59767;51.344;12.362;2022-12-18T02:09:48;63.65;;;25.65;;
71896;SDS011;59767;51.344;12.362;2022-12-18T02:13:06;64.40;;;24.63;;
71896;SDS011;59767;51.344;12.362;2022-12-18T02:26:22;59.25;;;25.13;;
71896;SDS011;59767;51.344;12.362;2022-12-18T02:29:34;53.90;;;23.38;;
71896;SDS011;59767;51.344;12.362;2022-12-18T02:33:01;54.67;;;22.70;;
71896;SDS011;59767;51.344;12.362;2022-12-18T02:36:09;58.75;;;23.25;;
71896;SDS011;59767;51.344;12.362;2022-12-18T02:39:15;53.90;;;23.10;;
71896;SDS011;59767;51.344;12.362;2022-12-18T02:42:21;54.83;;;21.90;;
71896;SDS011;59767;51.344;12.362;2022-12-18T02:45:26;56.47;;;21.60;;
71896;SDS011;59767;51.344;12.362;2022-12-18T02:48:33;53.40;;;22.13;;
71896;SDS011;59767;51.344;12.362;2022-12-18T02:51:46;54.42;;;21.73;;
71896;SDS011;59767;51.344;12.362;2022-12-18T02:58:33;50.70;;;20.77;;
71896;SDS011;59767;51.344;12.362;2022-12-18T03:01:42;48.53;;;20.92;;
71896;SDS011;59767;51.344;12.362;2022-12-18T03:04:56;48.00;;;20.73;;
71896;SDS011;59767;51.344;12.362;2022-12-18T03:08:15;50.40;;;20.58;;
71896;SDS011;59767;51.344;12.362;2022-12-18T03:11:22;51.08;;;21.05;;
71896;SDS011;59767;51.344;12.362;2022-12-18T03:18:03;48.30;;;19.70;;
71896;SDS011;59767;51.344;12.362;2022-12-18T03:21:11;47.45;;;19.95;;
71896;SDS011;59767;51.344;12.362;2022-12-18T03:24:18;48.72;;;20.75;;
71896;SDS011;59767;51.344;12.362;2022-12-18T03:27:25;49.10;;;19.83;;
71896;SDS011;59767;51.344;12.362;2022-12-18T03:30:32;46.42;;;17.95;;
71896;SDS011;59767;51.344;12.362;2022-12-18T03:33:39;47.25;;;18.52;;
71896;SDS011;59767;51.344;12.362;2022-12-18T03:36:47;45.15;;;17.88;;
71896;SDS011;59767;51.344;12.362;2022-12-18T03:39:52;47.75;;;17.70;;
71896;SDS011;59767;51.344;12.362;2022-12-18T03:42:58;47.33;;;18.50;;
71896;SDS011;59767;51.344;12.362;2022-12-18T03:46:35;43.20;;;17.60;;
71896;SDS011;59767;51.344;12.362;2022-12-18T03:56:48;42.92;;;16.45;;
71896;SDS011;59767;51.344;12.362;2022-12-18T04:00:00;48.00;;;16.63;;
71896;SDS011;59767;51.344;12.362;2022-12-18T04:03:08;37.80;;;16.52;;
71896;SDS011;59767;51.344;12.362;2022-12-18T04:06:14;42.72;;;17.08;;
71896;SDS011;59767;51.344;12.362;2022-12-18T04:09:20;41.03;;;17.27;;
71896;SDS011;59767;51.344;12.362;2022-12-18T04:12:24;36.20;;;16.13;;
71896;SDS011;59767;51.344;12.362;2022-12-18T04:15:29;43.35;;;16.77;;
71896;SDS011;59767;51.344;12.362;2022-12-18T04:18:37;39.58;;;16.05;;
71896;SDS011;59767;51.344;12.362;2022-12-18T04:21:41;40.65;;;16.58;;
71896;SDS011;59767;51.344;12.362;2022-12-18T04:24:45;38.83;;;15.98;;
71896;SDS011;59767;51.344;12.362;2022-12-18T04:27:49;41.85;;;16.83;;
71896;SDS011;59767;51.344;12.362;2022-12-18T04:30:53;39.00;;;16.27;;
71896;SDS011;59767;51.344;12.362;2022-12-18T04:33:57;39.45;;;16.15;;
71896;SDS011;59767;51.344;12.362;2022-12-18T04:37:01;43.22;;;15.82;;
71896;SDS011;59767;51.344;12.362;2022-12-18T04:40:05;38.85;;;16.25;;
71896;SDS011;59767;51.344;12.362;2022-12-18T04:43:09;42.40;;;15.95;;
71896;SDS011;59767;51.344;12.362;2022-12-18T04:46:14;45.50;;;16.60;;
71896;SDS011;59767;51.344;12.362;2022-12-18T04:49:18;41.08;;;15.98;;
71896;SDS011;59767;51.344;12.362;2022-12-18T04:52:22;40.70;;;14.90;;
71896;SDS011;59767;51.344;12.362;2022-12-18T04:55:29;39.63;;;16.23;;
71896;SDS011;59767;51.344;12.362;2022-12-18T04:58:34;37.40;;;15.10;;
71896;SDS011;59767;51.344;12.362;2022-12-18T05:01:38;32.47;;;14.20;;
71896;SDS011;59767;51.344;12.362;2022-12-18T05:04:42;33.85;;;13.48;;
71896;SDS011;59767;51.344;12.362;2022-12-18T05:07:46;33.75;;;13.77;;
71896;SDS011;59767;51.344;12.362;2022-12-18T05:10:57;35.33;;;13.85;;
71896;SDS011;59767;51.344;12.362;2022-12-18T05:14:08;30.73;;;12.60;;
71896;SDS011;59767;51.344;12.362;2022-12-18T05:17:12;33.22;;;12.73;;
71896;SDS011;59767;51.344;12.362;2022-12-18T05:20:16;33.72;;;12.75;;
71896;SDS011;59767;51.344;12.362;2022-12-18T05:23:22;31.75;;;13.18;;
71896;SDS011;59767;51.344;12.362;2022-12-18T05:26:27;29.38;;;12.02;;
71896;SDS011;59767;51.344;12.362;2022-12-18T05:29:31;27.85;;;11.70;;
71896;SDS011;59767;51.344;12.362;2022-12-18T05:32:35;33.08;;;13.35;;
71896;SDS011;59767;51.344;12.362;2022-12-18T05:35:40;30.85;;;11.30;;
71896;SDS011;59767;51.344;12.362;2022-12-18T05:38:43;26.02;;;11.02;;
71896;SDS011;59767;51.344;12.362;2022-12-18T05:41:47;28.33;;;11.27;;
71896;SDS011;59767;51.344;12.362;2022-12-18T05:44:51;26.05;;;10.65;;
71896;SDS011;59767;51.344;12.362;2022-12-18T05:47:55;24.40;;;10.27;;
71896;SDS011;59767;51.344;12.362;2022-12-18T05:51:03;30.17;;;10.68;;
71896;SDS011;59767;51.344;12.362;2022-12-18T05:54:10;24.50;;;10.35;;
71896;SDS011;59767;51.344;12.362;2022-12-18T05:57:14;27.58;;;10.80;;
71896;SDS011;59767;51.344;12.362;2022-12-18T06:00:19;27.40;;;10.73;;
71896;SDS011;59767;51.344;12.362;2022-12-18T06:03:23;27.73;;;10.27;;
71896;SDS011;59767;51.344;12.362;2022-12-18T06:06:34;31.95;;;10.77;;
71896;SDS011;59767;51.344;12.362;2022-12-18T06:09:38;26.80;;;11.05;;
71896;SDS011;59767;51.344;12.362;2022-12-18T06:12:42;24.70;;;10.25;;
71896;SDS011;59767;51.344;12.362;2022-12-18T06:15:46;24.80;;;10.57;;
71896;SDS011;59767;51.344;12.362;2022-12-18T06:18:50;24.42;;;10.02;;
71896;SDS011;59767;51.344;12.362;2022-12-18T06:21:55;25.42;;;10.10;;
71896;SDS011;59767;51.344;12.362;2022-12-18T06:25:01;24.77;;;10.85;;
71896;SDS011;59767;51.344;12.362;2022-12-18T06:28:05;24.75;;;10.80;;
71896;SDS011;59767;51.344;12.362;2022-12-18T06:31:10;25.00;;;10.45;;
71896;SDS011;59767;51.344;12.362;2022-12-18T06:34:14;25.63;;;10.38;;
71896;SDS011;59767;51.344;12.362;2022-12-18T06:37:19;28.00;;;10.75;;
71896;SDS011;59767;51.344;12.362;2022-12-18T06:40:23;29.85;;;11.18;;
71896;SDS011;59767;51.344;12.362;2022-12-18T06:43:27;27.98;;;11.18;;
71896;SDS011;59767;51.344;12.362;2022-12-18T06:46:31;26.13;;;11.32;;
71896;SDS011;59767;51.344;12.362;2022-12-18T06:49:36;29.00;;;10.48;;
71896;SDS011;59767;51.344;12.362;2022-12-18T06:52:40;26.73;;;10.75;;
71896;SDS011;59767;51.344;12.362;2022-12-18T06:55:44;26.80;;;11.10;;
71896;SDS011;59767;51.344;12.362;2022-12-18T06:58:48;27.10;;;10.27;;
71896;SDS011;59767;51.344;12.362;2022-12-18T07:01:53;25.60;;;11.05;;
71896;SDS011;59767;51.344;12.362;2022-12-18T07:04:57;25.23;;;10.82;;
71896;SDS011;59767;51.344;12.362;2022-12-18T07:08:02;25.70;;;10.75;;
71896;SDS011;59767;51.344;12.362;2022-12-18T07:11:06;24.83;;;10.77;;
71896;SDS011;59767;51.344;12.362;2022-12-18T07:14:10;24.35;;;11.23;;
71896;SDS011;59767;51.344;12.362;2022-12-18T07:17:13;27.92;;;10.90;;
71896;SDS011;59767;51.344;12.362;2022-12-18T07:20:18;27.48;;;11.80;;
71896;SDS011;59767;51.344;12.362;2022-12-18T07:23:22;28.80;;;11.48;;
71896;SDS011;59767;51.344;12.362;2022-12-18T07:26:26;26.30;;;11.57;;
71896;SDS011;59767;51.344;12.362;2022-12-18T07:29:30;27.90;;;11.23;;
71896;SDS011;59767;51.344;12.362;2022-12-18T07:32:34;27.63;;;11.57;;
71896;SDS011;59767;51.344;12.362;2022-12-18T07:35:38;24.45;;;10.73;;
71896;SDS011;59767;51.344;12.362;2022-12-18T07:38:43;24.65;;;9.60;;
71896;SDS011;59767;51.344;12.362;2022-12-18T07:41:49;26.05;;;10.27;;
71896;SDS011;59767;51.344;12.362;2022-12-18T07:45:13;22.35;;;10.07;;
71896;SDS011;59767;51.344;12.362;2022-12-18T07:48:17;24.95;;;10.13;;
71896;SDS011;59767;51.344;12.362;2022-12-18T07:51:21;26.67;;;9.43;;
71896;SDS011;59767;51.344;12.362;2022-12-18T07:54:25;25.42;;;9.65;;
71896;SDS011;59767;51.344;12.362;2022-12-18T07:57:29;25.05;;;9.80;;
71896;SDS011;59767;51.344;12.362;2022-12-18T08:00:54;23.83;;;9.80;;
71896;SDS011;59767;51.344;12.362;2022-12-18T08:04:05;23.98;;;9.70;;
71896;SDS011;59767;51.344;12.362;2022-12-18T08:07:09;24.88;;;9.77;;
71896;SDS011;59767;51.344;12.362;2022-12-18T08:10:13;19.33;;;8.68;;
71896;SDS011;59767;51.344;12.362;2022-12-18T08:13:17;23.25;;;8.70;;
71896;SDS011;59767;51.344;12.362;2022-12-18T08:16:22;22.10;;;9.00;;
71896;SDS011;59767;51.344;12.362;2022-12-18T08:19:26;20.23;;;8.98;;
71896;SDS011;59767;51.344;12.362;2022-12-18T08:22:30;25.17;;;9.30;;
71896;SDS011;59767;51.344;12.362;2022-12-18T08:25:37;19.48;;;8.55;;
71896;SDS011;59767;51.344;12.362;2022-12-18T08:28:41;21.38;;;9.15;;
71896;SDS011;59767;51.344;12.362;2022-12-18T08:31:45;22.08;;;8.68;;
71896;SDS011;59767;51.344;12.362;2022-12-18T08:34:49;20.55;;;8.43;;
71896;SDS011;59767;51.344;12.362;2022-12-18T08:37:53;21.70;;;8.85;;
71896;SDS011;59767;51.344;12.362;2022-12-18T08:41:04;20.33;;;8.65;;
71896;SDS011;59767;51.344;12.362;2022-12-18T08:44:10;20.33;;;8.55;;
71896;SDS011;59767;51.344;12.362;2022-12-18T08:47:33;23.77;;;8.40;;
71896;SDS011;59767;51.344;12.362;2022-12-18T08:50:37;21.73;;;8.30;;
71896;SDS011;59767;51.344;12.362;2022-12-18T08:53:41;24.67;;;8.77;;
71896;SDS011;59767;51.344;12.362;2022-12-18T08:56:46;20.77;;;8.32;;
71896;SDS011;59767;51.344;12.362;2022-12-18T08:59:50;18.08;;;7.70;;
71896;SDS011;59767;51.344;12.362;2022-12-18T09:02:54;24.30;;;8.23;;
71896;SDS011;59767;51.344;12.362;2022-12-18T09:05:59;18.75;;;7.65;;
71896;SDS011;59767;51.344;12.362;2022-12-18T09:09:03;18.08;;;7.45;;
71896;SDS011;59767;51.344;12.362;2022-12-18T09:12:08;17.98;;;7.53;;
71896;SDS011;59767;51.344;12.362;2022-12-18T09:15:12;19.63;;;7.30;;
71896;SDS011;59767;51.344;12.362;2022-12-18T09:18:17;18.30;;;7.15;;
71896;SDS011;59767;51.344;12.362;2022-12-18T09:21:22;16.98;;;7.10;;
71896;SDS011;59767;51.344;12.362;2022-12-18T09:24:27;18.40;;;6.53;;
71896;SDS011;59767;51.344;12.362;2022-12-18T09:27:31;16.75;;;6.93;;
71896;SDS011;59767;51.344;12.362;2022-12-18T09:30:37;15.45;;;6.15;;
71896;SDS011;59767;51.344;12.362;2022-12-18T09:33:41;17.05;;;6.63;;
71896;SDS011;59767;51.344;12.362;2022-12-18T09:36:45;16.08;;;6.30;;
71896;SDS011;59767;51.344;12.362;2022-12-18T09:39:50;12.75;;;5.93;;
71896;SDS011;59767;51.344;12.362;2022-12-18T09:42:59;15.75;;;5.85;;
71896;SDS011;59767;51.344;12.362;2022-12-18T09:46:09;17.88;;;6.30;;
71896;SDS011;59767;51.344;12.362;2022-12-18T09:49:20;16.42;;;5.97;;
71896;SDS011;59767;51.344;12.362;2022-12-18T09:52:39;13.93;;;5.60;;
71896;SDS011;59767;51.344;12.362;2022-12-18T09:55:45;14.55;;;5.75;;
71896;SDS011;59767;51.344;12.362;2022-12-18T09:58:55;15.32;;;5.63;;
71896;SDS011;59767;51.344;12.362;2022-12-18T10:05:23;11.52;;;5.20;;
71896;SDS011;59767;51.344;12.362;2022-12-18T10:15:38;13.07;;;5.35;;
71896;SDS011;59767;51.344;12.362;2022-12-18T10:25:38;12.00;;;5.00;;
71896;SDS011;59767;51.344;12.362;2022-12-18T10:28:54;15.27;;;5.13;;
71896;SDS011;59767;51.344;12.362;2022-12-18T10:32:09;11.20;;;4.93;;
71896;SDS011;59767;51.344;12.362;2022-12-18T10:35:25;12.68;;;4.50;;
71896;SDS011;59767;51.344;12.362;2022-12-18T10:38:31;12.98;;;5.00;;
71896;SDS011;59767;51.344;12.362;2022-12-18T10:41:36;14.38;;;5.57;;
71896;SDS011;59767;51.344;12.362;2022-12-18T10:44:40;16.45;;;5.40;;
71896;SDS011;59767;51.344;12.362;2022-12-18T10:47:48;16.38;;;5.45;;
71896;SDS011;59767;51.344;12.362;2022-12-18T10:50:53;12.48;;;4.80;;
71896;SDS011;59767;51.344;12.362;2022-12-18T10:54:21;11.45;;;5.10;;
71896;SDS011;59767;51.344;12.362;2022-12-18T10:57:36;13.50;;;5.72;;
71896;SDS011;59767;51.344;12.362;2022-12-18T11:00:42;15.68;;;5.70;;
71896;SDS011;59767;51.344;12.362;2022-12-18T11:06:55;25.83;;;11.45;;
71896;SDS011;59767;51.344;12.362;2022-12-18T11:10:04;25.77;;;11.27;;
71896;SDS011;59767;51.344;12.362;2022-12-18T11:13:18;26.58;;;10.95;;
71896;SDS011;59767;51.344;12.362;2022-12-18T11:16:26;33.75;;;13.68;;
71896;SDS011;59767;51.344;12.362;2022-12-18T11:19:32;30.58;;;11.85;;
71896;SDS011;59767;51.344;12.362;2022-12-18T11:22:39;32.83;;;14.15;;
71896;SDS011;59767;51.344;12.362;2022-12-18T11:25:50;26.27;;;10.98;;
71896;SDS011;59767;51.344;12.362;2022-12-18T11:29:08;26.77;;;10.57;;
71896;SDS011;59767;51.344;12.362;2022-12-18T11:35:46;22.48;;;9.40;;
71896;SDS011;59767;51.344;12.362;2022-12-18T11:38:53;23.27;;;10.00;;
71896;SDS011;59767;51.344;12.362;2022-12-18T11:42:08;23.52;;;9.88;;
71896;SDS011;59767;51.344;12.362;2022-12-18T11:45:20;22.35;;;10.15;;
71896;SDS011;59767;51.344;12.362;2022-12-18T11:48:30;24.70;;;11.57;;
71896;SDS011;59767;51.344;12.362;2022-12-18T11:51:50;26.63;;;10.38;;
71896;SDS011;59767;51.344;12.362;2022-12-18T11:55:00;24.00;;;10.15;;
71896;SDS011;59767;51.344;12.362;2022-12-18T12:04:56;22.98;;;9.35;;
71896;SDS011;59767;51.344;12.362;2022-12-18T12:22:35;22.65;;;8.00;;
71896;SDS011;59767;51.344;12.362;2022-12-18T12:25:51;21.48;;;9.82;;
71896;SDS011;59767;51.344;12.362;2022-12-18T12:39:40;22.70;;;9.75;;
71896;SDS011;59767;51.344;12.362;2022-12-18T12:42:44;22.70;;;9.73;;
71896;SDS011;59767;51.344;12.362;2022-12-18T12:46:14;23.75;;;10.57;;
71896;SDS011;59767;51.344;12.362;2022-12-18T12:49:21;21.10;;;9.98;;
71896;SDS011;59767;51.344;12.362;2022-12-18T12:52:38;24.38;;;10.32;;
71896;SDS011;59767;51.344;12.362;2022-12-18T12:55:46;26.13;;;11.00;;
71896;SDS011;59767;51.344;12.362;2022-12-18T13:05:58;20.67;;;9.10;;
71896;SDS011;59767;51.344;12.362;2022-12-18T13:09:07;23.88;;;9.98;;
71896;SDS011;59767;51.344;12.362;2022-12-18T13:12:13;26.35;;;9.88;;
71896;SDS011;59767;51.344;12.362;2022-12-18T13:15:39;24.10;;;10.32;;
71896;SDS011;59767;51.344;12.362;2022-12-18T13:18:48;19.85;;;9.05;;
71896;SDS011;59767;51.344;12.362;2022-12-18T13:21:54;26.42;;;9.90;;
71896;SDS011;59767;51.344;12.362;2022-12-18T13:25:00;24.45;;;10.48;;
71896;SDS011;59767;51.344;12.362;2022-12-18T13:28:11;24.00;;;10.45;;
71896;SDS011;59767;51.344;12.362;2022-12-18T13:34:33;25.52;;;10.43;;
71896;SDS011;59767;51.344;12.362;2022-12-18T13:37:39;22.52;;;9.48;;
71896;SDS011;59767;51.344;12.362;2022-12-18T13:43:52;27.02;;;9.70;;
71896;SDS011;59767;51.344;12.362;2022-12-18T13:47:03;23.40;;;9.98;;
71896;SDS011;59767;51.344;12.362;2022-12-18T13:50:09;30.15;;;11.93;;
71896;SDS011;59767;51.344;12.362;2022-12-18T13:53:30;27.67;;;10.32;;
71896;SDS011;59767;51.344;12.362;2022-12-18T13:56:43;22.40;;;9.20;;
71896;SDS011;59767;51.344;12.362;2022-12-18T13:59:49;22.52;;;9.88;;
71896;SDS011;59767;51.344;12.362;2022-12-18T14:02:54;22.55;;;10.13;;
71896;SDS011;59767;51.344;12.362;2022-12-18T14:06:01;24.75;;;10.23;;
71896;SDS011;59767;51.344;12.362;2022-12-18T14:09:10;29.15;;;12.35;;
71896;SDS011;59767;51.344;12.362;2022-12-18T14:12:24;26.38;;;12.30;;
71896;SDS011;59767;51.344;12.362;2022-12-18T14:15:51;29.05;;;12.70;;
71896;SDS011;59767;51.344;12.362;2022-12-18T14:18:56;27.33;;;12.45;;
71896;SDS011;59767;51.344;12.362;2022-12-18T14:22:22;29.25;;;13.85;;
71896;SDS011;59767;51.344;12.362;2022-12-18T14:25:33;33.25;;;13.65;;
71896;SDS011;59767;51.344;12.362;2022-12-18T14:28:43;31.90;;;13.65;;
71896;SDS011;59767;51.344;12.362;2022-12-18T14:32:21;31.08;;;13.60;;
71896;SDS011;59767;51.344;12.362;2022-12-18T14:35:22;34.38;;;14.55;;
71896;SDS011;59767;51.344;12.362;2022-12-18T14:41:31;34.42;;;15.13;;
71896;SDS011;59767;51.344;12.362;2022-12-18T14:44:36;38.22;;;15.00;;
71896;SDS011;59767;51.344;12.362;2022-12-18T14:48:00;37.25;;;16.65;;
71896;SDS011;59767;51.344;12.362;2022-12-18T14:51:06;38.97;;;16.58;;
71896;SDS011;59767;51.344;12.362;2022-12-18T14:54:20;36.72;;;16.60;;
71896;SDS011;59767;51.344;12.362;2022-12-18T14:57:32;37.85;;;16.52;;
71896;SDS011;59767;51.344;12.362;2022-12-18T15:00:41;40.88;;;17.00;;
71896;SDS011;59767;51.344;12.362;2022-12-18T15:03:46;39.13;;;15.50;;
71896;SDS011;59767;51.344;12.362;2022-12-18T15:06:52;39.97;;;16.73;;
71896;SDS011;59767;51.344;12.362;2022-12-18T15:13:20;43.55;;;17.92;;
71896;SDS011;59767;51.344;12.362;2022-12-18T15:16:25;41.95;;;17.67;;
71896;SDS011;59767;51.344;12.362;2022-12-18T15:19:40;40.75;;;17.58;;
71896;SDS011;59767;51.344;12.362;2022-12-18T15:22:46;38.83;;;16.98;;
71896;SDS011;59767;51.344;12.362;2022-12-18T15:25:57;37.42;;;16.48;;
71896;SDS011;59767;51.344;12.362;2022-12-18T15:29:03;45.88;;;17.85;;
71896;SDS011;59767;51.344;12.362;2022-12-18T15:32:14;41.15;;;17.58;;
71896;SDS011;59767;51.344;12.362;2022-12-18T15:35:23;42.17;;;17.90;;
71896;SDS011;59767;51.344;12.362;2022-12-18T15:38:28;43.63;;;18.30;;
71896;SDS011;59767;51.344;12.362;2022-12-18T15:41:33;40.70;;;18.23;;
71896;SDS011;59767;51.344;12.362;2022-12-18T15:44:39;44.35;;;18.05;;
71896;SDS011;59767;51.344;12.362;2022-12-18T15:47:43;38.85;;;16.95;;
71896;SDS011;59767;51.344;12.362;2022-12-18T15:50:48;42.25;;;17.63;;
71896;SDS011;59767;51.344;12.362;2022-12-18T15:53:54;42.35;;;17.33;;
71896;SDS011;59767;51.344;12.362;2022-12-18T15:57:00;44.83;;;17.77;;
71896;SDS011;59767;51.344;12.362;2022-12-18T16:00:23;47.70;;;19.17;;
71896;SDS011;59767;51.344;12.362;2022-12-18T16:03:27;40.38;;;18.67;;
71896;SDS011;59767;51.344;12.362;2022-12-18T16:06:31;42.22;;;17.58;;
71896;SDS011;59767;51.344;12.362;2022-12-18T16:09:56;44.40;;;19.38;;
71896;SDS011;59767;51.344;12.362;2022-12-18T16:13:02;45.13;;;18.85;;
71896;SDS011;59767;51.344;12.362;2022-12-18T16:16:07;46.78;;;18.40;;
71896;SDS011;59767;51.344;12.362;2022-12-18T16:19:12;44.63;;;18.65;;
71896;SDS011;59767;51.344;12.362;2022-12-18T16:22:20;45.03;;;19.02;;
71896;SDS011;59767;51.344;12.362;2022-12-18T16:25:27;43.15;;;18.73;;
71896;SDS011;59767;51.344;12.362;2022-12-18T16:28:31;51.10;;;21.13;;
71896;SDS011;59767;51.344;12.362;2022-12-18T16:31:36;45.33;;;19.25;;
71896;SDS011;59767;51.344;12.362;2022-12-18T16:34:41;47.78;;;19.92;;
71896;SDS011;59767;51.344;12.362;2022-12-18T16:37:46;43.38;;;18.60;;
71896;SDS011;59767;51.344;12.362;2022-12-18T16:40:50;39.08;;;16.88;;
71896;SDS011;59767;51.344;12.362;2022-12-18T16:44:26;41.13;;;17.98;;
71896;SDS011;59767;51.344;12.362;2022-12-18T16:47:30;43.50;;;18.45;;
71896;SDS011;59767;51.344;12.362;2022-12-18T16:50:35;44.28;;;18.00;;
71896;SDS011;59767;51.344;12.362;2022-12-18T16:53:38;41.22;;;17.35;;
71896;SDS011;59767;51.344;12.362;2022-12-18T16:56:43;45.35;;;18.35;;
71896;SDS011;59767;51.344;12.362;2022-12-18T16:59:47;42.72;;;16.38;;
71896;SDS011;59767;51.344;12.362;2022-12-18T17:02:53;41.97;;;17.15;;
71896;SDS011;59767;51.344;12.362;2022-12-18T17:06:01;41.22;;;16.40;;
71896;SDS011;59767;51.344;12.362;2022-12-18T17:09:12;39.00;;;16.35;;
71896;SDS011;59767;51.344;12.362;2022-12-18T17:12:18;40.03;;;16.65;;
71896;SDS011;59767;51.344;12.362;2022-12-18T17:15:23;40.67;;;16.23;;
71896;SDS011;59767;51.344;12.362;2022-12-18T17:18:27;43.72;;;17.45;;
71896;SDS011;59767;51.344;12.362;2022-12-18T17:21:31;45.65;;;16.77;;
71896;SDS011;59767;51.344;12.362;2022-12-18T17:24:36;41.75;;;16.92;;
71896;SDS011;59767;51.344;12.362;2022-12-18T17:27:40;38.47;;;16.10;;
71896;SDS011;59767;51.344;12.362;2022-12-18T17:30:44;43.92;;;16.40;;
71896;SDS011;59767;51.344;12.362;2022-12-18T17:33:48;47.30;;;18.75;;
71896;SDS011;59767;51.344;12.362;2022-12-18T17:36:54;38.40;;;14.95;;
71896;SDS011;59767;51.344;12.362;2022-12-18T17:39:58;42.58;;;16.02;;
71896;SDS011;59767;51.344;12.362;2022-12-18T17:43:03;39.97;;;16.00;;
71896;SDS011;59767;51.344;12.362;2022-12-18T17:46:07;39.88;;;16.27;;
71896;SDS011;59767;51.344;12.362;2022-12-18T17:49:13;41.20;;;15.45;;
71896;SDS011;59767;51.344;12.362;2022-12-18T17:52:18;36.45;;;16.02;;
71896;SDS011;59767;51.344;12.362;2022-12-18T17:55:22;39.33;;;15.40;;
71896;SDS011;59767;51.344;12.362;2022-12-18T17:58:27;41.88;;;16.27;;
71896;SDS011;59767;51.344;12.362;2022-12-18T18:01:31;39.95;;;16.70;;
71896;SDS011;59767;51.344;12.362;2022-12-18T18:04:35;38.30;;;15.77;;
71896;SDS011;59767;51.344;12.362;2022-12-18T18:07:40;36.80;;;14.63;;
71896;SDS011;59767;51.344;12.362;2022-12-18T18:10:45;38.38;;;15.15;;
71896;SDS011;59767;51.344;12.362;2022-12-18T18:13:51;41.10;;;15.13;;
71896;SDS011;59767;51.344;12.362;2022-12-18T18:17:04;36.88;;;14.32;;
71896;SDS011;59767;51.344;12.362;2022-12-18T18:20:09;36.83;;;14.07;;
71896;SDS011;59767;51.344;12.362;2022-12-18T18:23:13;35.33;;;14.00;;
71896;SDS011;59767;51.344;12.362;2022-12-18T18:26:17;37.55;;;14.65;;
71896;SDS011;59767;51.344;12.362;2022-12-18T18:29:23;32.13;;;13.60;;
71896;SDS011;59767;51.344;12.362;2022-12-18T18:32:30;33.70;;;14.00;;
71896;SDS011;59767;51.344;12.362;2022-12-18T18:35:40;33.63;;;15.25;;
71896;SDS011;59767;51.344;12.362;2022-12-18T18:38:57;36.45;;;13.60;;
71896;SDS011;59767;51.344;12.362;2022-12-18T18:42:03;34.67;;;13.95;;
71896;SDS011;59767;51.344;12.362;2022-12-18T18:45:07;34.45;;;13.45;;
71896;SDS011;59767;51.344;12.362;2022-12-18T18:48:12;35.55;;;13.60;;
71896;SDS011;59767;51.344;12.362;2022-12-18T18:51:16;32.70;;;13.93;;
71896;SDS011;59767;51.344;12.362;2022-12-18T18:54:24;28.08;;;12.27;;
71896;SDS011;59767;51.344;12.362;2022-12-18T18:57:28;31.33;;;12.48;;
71896;SDS011;59767;51.344;12.362;2022-12-18T19:00:33;38.35;;;12.57;;
71896;SDS011;59767;51.344;12.362;2022-12-18T19:03:38;40.80;;;15.45;;
71896;SDS011;59767;51.344;12.362;2022-12-18T19:06:43;31.60;;;12.43;;
71896;SDS011;59767;51.344;12.362;2022-12-18T19:09:50;35.38;;;12.98;;
71896;SDS011;59767;51.344;12.362;2022-12-18T19:12:57;32.40;;;12.68;;
71896;SDS011;59767;51.344;12.362;2022-12-18T19:16:20;33.55;;;13.45;;
71896;SDS011;59767;51.344;12.362;2022-12-18T19:19:26;28.70;;;11.90;;
71896;SDS011;59767;51.344;12.362;2022-12-18T19:22:31;32.90;;;13.18;;
71896;SDS011;59767;51.344;12.362;2022-12-18T19:25:36;28.92;;;11.50;;
71896;SDS011;59767;51.344;12.362;2022-12-18T19:28:44;29.55;;;11.65;;
71896;SDS011;59767;51.344;12.362;2022-12-18T19:31:48;25.88;;;11.18;;
71896;SDS011;59767;51.344;12.362;2022-12-18T19:34:53;30.70;;;11.90;;
71896;SDS011;59767;51.344;12.362;2022-12-18T19:37:57;33.63;;;13.68;;
71896;SDS011;59767;51.344;12.362;2022-12-18T19:41:03;40.25;;;16.10;;
71896;SDS011;59767;51.344;12.362;2022-12-18T19:44:10;39.58;;;14.73;;